Flight Track Log - Related Links

Times and Time Zones

All times are in EDT time to prevent confusion due to time zone crossing. See the WEW1540 flight status page for this flight to view local times or setup timezone preferences in your user account.

Time Position Orientation Groundspeed Altitude Reporting Facility
EDT Latitude Longitude Course Direction KTS MPH feet Rate Location/Type
Thu 09:07:00 AM 50.5592 -108.0070 323° Northwest  Level Estimated
Thu 09:08:00 AM 50.5888 -108.0424 323° Northwest  Level Estimated
Thu 09:09:00 AM 50.6185 -108.0778 323° Northwest  Level Estimated
Thu 09:10:00 AM 50.6481 -108.1133 323° Northwest  Level Estimated
Thu 09:11:00 AM 50.6777 -108.1488 323° Northwest  Level Estimated
Thu 09:12:00 AM 50.7073 -108.1844 323° Northwest  Level Estimated
Thu 09:12:26 AM 50.8333 -108.4000 323° Northwest 160 184 5,900  Level Winnipeg Center
Thu 09:13:00 AM 50.7369 -108.2200 323° Northwest  Level Estimated
Thu 09:14:00 AM 50.7665 -108.2556 323° Northwest  Level Estimated
Thu 09:14:00 AM 50.8818 -108.4512 326° Northwest  Level FlightAware Approximate
Thu 09:14:46 AM 50.9333 -108.5000 326° Northwest 180 207 5,900  Level Winnipeg Center
Thu 09:15:00 AM 50.7961 -108.2913 323° Northwest  Level Estimated
Thu 09:15:46 AM 50.9667 -108.5667 308° West 180 207 5,900  Level Winnipeg Center
Thu 09:16:00 AM 50.8256 -108.3271 323° Northwest  Level Estimated
Thu 09:16:46 AM 51.0000 -108.6000 328° Northwest 180 207 5,900  Level Winnipeg Center
Thu 09:17:00 AM 50.8552 -108.3628 323° Northwest  Level Estimated
Thu 09:17:46 AM 51.0500 -108.6667 320° Northwest 180 207 5,900  Level Winnipeg Center
Thu 09:18:00 AM 50.8847 -108.3987 323° Northwest  Level Estimated
Thu 09:18:46 AM 51.0833 -108.7000 328° Northwest 180 207 5,900  Level Winnipeg Center
Thu 09:19:46 AM 51.1167 -108.7667 309° West 180 207 5,900 -86 Level Winnipeg Center
Thu 09:21:00 AM 51.1582 -108.7977 335° Northwest  Level FlightAware Approximate
Thu 09:22:15 AM 51.2333 -108.8667 335° Northwest 190 219 5,600  Level Winnipeg Center
Thu 09:23:15 AM 51.2500 -108.9000 309° West 190 219 5,400 -300 Descending Winnipeg Center
Thu 09:24:15 AM 51.3000 -108.9500 328° Northwest 180 207 5,000 -350 Descending Winnipeg Center
Thu 09:25:15 AM 51.3500 -108.9833 337° Northwest 180 207 4,700 -332 Descending Winnipeg Center
Thu 09:27:34 AM 51.4500 -109.0833 328° Northwest 150 173 3,900 -345 Descending Winnipeg Center
Thu 09:29:00 AM 51.4870 -109.1450 314° West  Level FlightAware Approximate
Thu 09:36:00 AM 51.5000 -109.1667 323° Northwest  Level FlightAware Approximate
Thu 09:37:00 AM 51.5175 -109.1808 323° Northwest  Level Estimated
Thu 09:38:00 AM 51.5175 -109.1808 323° Northwest  Level Estimated
Thu 09:39:00 AM 51.5175 -109.1808 323° Northwest  Level Estimated
Thu 09:40:00 AM 51.5175 -109.1808 323° Northwest  Level Estimated
Thu 09:41:00 AM 51.5175 -109.1808 323° Northwest  Level Estimated
Thu 09:42:00 AM 51.5175 -109.1808 323° Northwest  Level Estimated
Thu 09:43:00 AM 51.5175 -109.1808 323° Northwest  Level Estimated
Thu 09:44:00 AM 51.5175 -109.1808 323° Northwest  Level Estimated
Thu 09:45:00 AM 51.5175 -109.1808 323° Northwest  Level Estimated
Thu 09:46:00 AM 51.5175 -109.1808 323° Northwest  Level Estimated
Thu 09:47:00 AM 51.5175 -109.1808 323° Northwest  Level Estimated
Thu 09:48:00 AM 51.5175 -109.1808 323° Northwest  Level Estimated
Thu 09:49:00 AM 51.5175 -109.1808 323° Northwest  Level Estimated
Thu 09:50:00 AM 51.5175 -109.1808 323° Northwest  Level Estimated
Thu 09:51:00 AM 51.5175 -109.1808 323° Northwest  Level Estimated
Thu 09:52:00 AM 51.5175 -109.1808 323° Northwest  Level Estimated
Thu 09:53:00 AM 51.5175 -109.1808 323° Northwest  Level Estimated
Thu 09:54:00 AM 51.5175 -109.1808 323° Northwest  Level Estimated
Thu 09:55:00 AM 51.5175 -109.1808 323° Northwest  Level Estimated

Login

Don't have an account? Register now (free) for customized features, flight alerts, and more!